sensor_id;sensor_type;location;lat;lon;timestamp;temperature;humidity
74336;DHT22;62755;-33.398;-70.572;2022-11-23T00:02:05;27.10;31.80
74336;DHT22;62755;-33.398;-70.572;2022-11-23T00:04:34;27.10;31.90
74336;DHT22;62755;-33.398;-70.572;2022-11-23T00:07:04;27.20;31.80
74336;DHT22;62755;-33.398;-70.572;2022-11-23T00:09:33;27.30;31.70
74336;DHT22;62755;-33.398;-70.572;2022-11-23T00:12:04;27.30;31.60
74336;DHT22;62755;-33.398;-70.572;2022-11-23T00:14:33;27.30;31.60
74336;DHT22;62755;-33.398;-70.572;2022-11-23T00:17:05;27.20;31.90
74336;DHT22;62755;-33.398;-70.572;2022-11-23T00:19:34;27.20;31.90
74336;DHT22;62755;-33.398;-70.572;2022-11-23T00:22:04;27.10;31.90
74336;DHT22;62755;-33.398;-70.572;2022-11-23T00:24:34;27.10;32.10
74336;DHT22;62755;-33.398;-70.572;2022-11-23T00:27:03;27.20;32.20
74336;DHT22;62755;-33.398;-70.572;2022-11-23T00:29:33;27.20;32.30
74336;DHT22;62755;-33.398;-70.572;2022-11-23T00:32:02;27.30;32.30
74336;DHT22;62755;-33.398;-70.572;2022-11-23T00:34:33;27.30;32.40
74336;DHT22;62755;-33.398;-70.572;2022-11-23T00:37:03;27.30;32.50
74336;DHT22;62755;-33.398;-70.572;2022-11-23T00:39:33;27.30;32.30
74336;DHT22;62755;-33.398;-70.572;2022-11-23T00:42:03;27.40;32.40
74336;DHT22;62755;-33.398;-70.572;2022-11-23T00:44:32;27.30;32.40
74336;DHT22;62755;-33.398;-70.572;2022-11-23T00:47:02;27.30;32.40
74336;DHT22;62755;-33.398;-70.572;2022-11-23T00:49:33;27.30;32.50
74336;DHT22;62755;-33.398;-70.572;2022-11-23T00:52:03;27.30;32.50
74336;DHT22;62755;-33.398;-70.572;2022-11-23T00:54:33;27.30;32.50
74336;DHT22;62755;-33.398;-70.572;2022-11-23T00:57:02;27.20;32.60
74336;DHT22;62755;-33.398;-70.572;2022-11-23T00:59:32;27.20;32.50
74336;DHT22;62755;-33.398;-70.572;2022-11-23T01:02:01;27.10;32.50
74336;DHT22;62755;-33.398;-70.572;2022-11-23T01:04:32;27.10;32.70
74336;DHT22;62755;-33.398;-70.572;2022-11-23T01:07:02;27.10;32.70
74336;DHT22;62755;-33.398;-70.572;2022-11-23T01:09:32;27.10;32.70
74336;DHT22;62755;-33.398;-70.572;2022-11-23T01:12:01;26.90;32.70
74336;DHT22;62755;-33.398;-70.572;2022-11-23T01:14:31;26.80;32.90
74336;DHT22;62755;-33.398;-70.572;2022-11-23T01:17:01;26.80;32.80
74336;DHT22;62755;-33.398;-70.572;2022-11-23T01:19:32;26.90;32.90
74336;DHT22;62755;-33.398;-70.572;2022-11-23T01:22:01;26.90;32.80
74336;DHT22;62755;-33.398;-70.572;2022-11-23T01:24:33;26.80;32.90
74336;DHT22;62755;-33.398;-70.572;2022-11-23T01:27:03;26.80;33.00
74336;DHT22;62755;-33.398;-70.572;2022-11-23T01:29:32;26.70;33.00
74336;DHT22;62755;-33.398;-70.572;2022-11-23T01:32:02;26.70;33.10
74336;DHT22;62755;-33.398;-70.572;2022-11-23T01:34:33;26.80;33.10
74336;DHT22;62755;-33.398;-70.572;2022-11-23T01:37:03;26.80;33.50
74336;DHT22;62755;-33.398;-70.572;2022-11-23T01:39:32;26.90;33.40
74336;DHT22;62755;-33.398;-70.572;2022-11-23T01:42:03;26.90;33.20
74336;DHT22;62755;-33.398;-70.572;2022-11-23T01:44:35;26.90;33.30
74336;DHT22;62755;-33.398;-70.572;2022-11-23T01:47:06;27.00;33.30
74336;DHT22;62755;-33.398;-70.572;2022-11-23T01:49:41;27.00;33.40
74336;DHT22;62755;-33.398;-70.572;2022-11-23T01:52:13;27.00;33.70
74336;DHT22;62755;-33.398;-70.572;2022-11-23T01:54:46;27.00;33.60
74336;DHT22;62755;-33.398;-70.572;2022-11-23T01:57:19;27.00;33.60
74336;DHT22;62755;-33.398;-70.572;2022-11-23T01:59:51;27.00;33.50
74336;DHT22;62755;-33.398;-70.572;2022-11-23T02:02:21;27.00;33.40
74336;DHT22;62755;-33.398;-70.572;2022-11-23T02:04:53;27.00;33.20
74336;DHT22;62755;-33.398;-70.572;2022-11-23T02:07:23;26.90;33.40
74336;DHT22;62755;-33.398;-70.572;2022-11-23T02:09:53;26.80;33.20
74336;DHT22;62755;-33.398;-70.572;2022-11-23T02:12:23;26.70;33.20
74336;DHT22;62755;-33.398;-70.572;2022-11-23T02:14:53;26.70;33.20
74336;DHT22;62755;-33.398;-70.572;2022-11-23T02:17:23;26.60;33.30
74336;DHT22;62755;-33.398;-70.572;2022-11-23T02:20:00;26.60;33.30
74336;DHT22;62755;-33.398;-70.572;2022-11-23T02:22:34;26.60;33.50
74336;DHT22;62755;-33.398;-70.572;2022-11-23T02:25:11;26.60;33.50
74336;DHT22;62755;-33.398;-70.572;2022-11-23T02:27:44;26.70;33.50
74336;DHT22;62755;-33.398;-70.572;2022-11-23T02:30:14;26.60;33.30
74336;DHT22;62755;-33.398;-70.572;2022-11-23T02:32:44;26.60;33.30
74336;DHT22;62755;-33.398;-70.572;2022-11-23T02:35:13;26.50;33.50
74336;DHT22;62755;-33.398;-70.572;2022-11-23T02:37:43;26.40;33.30
74336;DHT22;62755;-33.398;-70.572;2022-11-23T02:40:19;26.40;33.50
74336;DHT22;62755;-33.398;-70.572;2022-11-23T02:42:53;26.40;33.60
74336;DHT22;62755;-33.398;-70.572;2022-11-23T02:45:29;26.40;33.50
74336;DHT22;62755;-33.398;-70.572;2022-11-23T02:48:01;26.40;33.70
74336;DHT22;62755;-33.398;-70.572;2022-11-23T02:50:31;26.40;33.60
74336;DHT22;62755;-33.398;-70.572;2022-11-23T02:53:00;26.40;33.60
74336;DHT22;62755;-33.398;-70.572;2022-11-23T02:55:30;26.40;33.70
74336;DHT22;62755;-33.398;-70.572;2022-11-23T02:58:01;26.40;33.70
74336;DHT22;62755;-33.398;-70.572;2022-11-23T03:00:32;26.40;33.60
74336;DHT22;62755;-33.398;-70.572;2022-11-23T03:03:02;26.30;33.70
74336;DHT22;62755;-33.398;-70.572;2022-11-23T03:05:32;26.10;33.70
74336;DHT22;62755;-33.398;-70.572;2022-11-23T03:08:01;26.00;34.00
74336;DHT22;62755;-33.398;-70.572;2022-11-23T03:10:31;25.80;34.30
74336;DHT22;62755;-33.398;-70.572;2022-11-23T03:13:02;25.60;34.40
74336;DHT22;62755;-33.398;-70.572;2022-11-23T03:15:31;25.60;34.60
74336;DHT22;62755;-33.398;-70.572;2022-11-23T03:18:01;25.60;34.60
74336;DHT22;62755;-33.398;-70.572;2022-11-23T03:20:30;25.60;34.70
74336;DHT22;62755;-33.398;-70.572;2022-11-23T03:23:00;25.50;34.80
74336;DHT22;62755;-33.398;-70.572;2022-11-23T03:25:29;25.50;35.00
74336;DHT22;62755;-33.398;-70.572;2022-11-23T03:28:00;25.40;35.20
74336;DHT22;62755;-33.398;-70.572;2022-11-23T03:30:30;25.40;35.20
74336;DHT22;62755;-33.398;-70.572;2022-11-23T03:32:59;25.40;35.00
74336;DHT22;62755;-33.398;-70.572;2022-11-23T03:35:29;25.50;34.70
74336;DHT22;62755;-33.398;-70.572;2022-11-23T03:37:58;25.50;34.70
74336;DHT22;62755;-33.398;-70.572;2022-11-23T03:40:28;25.50;34.60
74336;DHT22;62755;-33.398;-70.572;2022-11-23T03:42:57;25.50;34.70
74336;DHT22;62755;-33.398;-70.572;2022-11-23T03:45:28;25.50;34.70
74336;DHT22;62755;-33.398;-70.572;2022-11-23T03:47:58;25.50;34.90
74336;DHT22;62755;-33.398;-70.572;2022-11-23T03:50:27;25.50;34.90
74336;DHT22;62755;-33.398;-70.572;2022-11-23T03:52:57;25.50;35.10
74336;DHT22;62755;-33.398;-70.572;2022-11-23T03:55:27;25.40;35.30
74336;DHT22;62755;-33.398;-70.572;2022-11-23T03:57:56;25.40;35.50
74336;DHT22;62755;-33.398;-70.572;2022-11-23T04:00:29;25.40;35.30
74336;DHT22;62755;-33.398;-70.572;2022-11-23T04:02:58;25.30;35.60
74336;DHT22;62755;-33.398;-70.572;2022-11-23T04:05:28;25.40;35.30
74336;DHT22;62755;-33.398;-70.572;2022-11-23T04:07:57;25.30;35.50
74336;DHT22;62755;-33.398;-70.572;2022-11-23T04:10:27;25.20;35.70
74336;DHT22;62755;-33.398;-70.572;2022-11-23T04:12:56;25.20;35.80
74336;DHT22;62755;-33.398;-70.572;2022-11-23T04:15:27;25.30;35.70
74336;DHT22;62755;-33.398;-70.572;2022-11-23T04:17:57;25.40;35.60
74336;DHT22;62755;-33.398;-70.572;2022-11-23T04:20:26;25.40;35.70
74336;DHT22;62755;-33.398;-70.572;2022-11-23T04:22:56;25.40;35.50
74336;DHT22;62755;-33.398;-70.572;2022-11-23T04:25:25;25.50;35.50
74336;DHT22;62755;-33.398;-70.572;2022-11-23T04:27:55;25.50;35.40
74336;DHT22;62755;-33.398;-70.572;2022-11-23T04:30:24;25.50;35.50
74336;DHT22;62755;-33.398;-70.572;2022-11-23T04:32:56;25.40;35.20
74336;DHT22;62755;-33.398;-70.572;2022-11-23T04:35:25;25.40;35.30
74336;DHT22;62755;-33.398;-70.572;2022-11-23T04:37:55;25.20;35.20
74336;DHT22;62755;-33.398;-70.572;2022-11-23T04:40:24;25.20;35.50
74336;DHT22;62755;-33.398;-70.572;2022-11-23T04:42:53;25.00;35.30
74336;DHT22;62755;-33.398;-70.572;2022-11-23T04:45:23;25.00;35.60
74336;DHT22;62755;-33.398;-70.572;2022-11-23T04:47:55;24.90;35.80
74336;DHT22;62755;-33.398;-70.572;2022-11-23T04:50:25;24.70;36.20
74336;DHT22;62755;-33.398;-70.572;2022-11-23T04:52:54;24.40;36.20
74336;DHT22;62755;-33.398;-70.572;2022-11-23T04:55:24;24.20;36.50
74336;DHT22;62755;-33.398;-70.572;2022-11-23T04:57:54;24.30;36.70
74336;DHT22;62755;-33.398;-70.572;2022-11-23T05:00:23;24.40;36.60
74336;DHT22;62755;-33.398;-70.572;2022-11-23T05:02:57;24.50;36.20
74336;DHT22;62755;-33.398;-70.572;2022-11-23T05:05:26;24.60;35.90
74336;DHT22;62755;-33.398;-70.572;2022-11-23T05:07:57;24.70;35.70
74336;DHT22;62755;-33.398;-70.572;2022-11-23T05:10:26;24.70;35.50
74336;DHT22;62755;-33.398;-70.572;2022-11-23T05:12:56;24.80;35.50
74336;DHT22;62755;-33.398;-70.572;2022-11-23T05:15:25;24.80;35.40
74336;DHT22;62755;-33.398;-70.572;2022-11-23T05:18:00;24.90;35.30
74336;DHT22;62755;-33.398;-70.572;2022-11-23T05:20:30;24.90;35.30
74336;DHT22;62755;-33.398;-70.572;2022-11-23T05:22:59;24.90;35.20
74336;DHT22;62755;-33.398;-70.572;2022-11-23T05:25:29;25.00;35.20
74336;DHT22;62755;-33.398;-70.572;2022-11-23T05:27:58;24.90;35.30
74336;DHT22;62755;-33.398;-70.572;2022-11-23T05:30:28;25.00;35.30
74336;DHT22;62755;-33.398;-70.572;2022-11-23T05:33:02;24.90;35.40
74336;DHT22;62755;-33.398;-70.572;2022-11-23T05:35:32;24.90;35.50
74336;DHT22;62755;-33.398;-70.572;2022-11-23T05:38:01;24.80;35.50
74336;DHT22;62755;-33.398;-70.572;2022-11-23T05:40:31;24.80;35.50
74336;DHT22;62755;-33.398;-70.572;2022-11-23T05:43:01;24.70;35.70
74336;DHT22;62755;-33.398;-70.572;2022-11-23T05:45:30;24.70;35.80
74336;DHT22;62755;-33.398;-70.572;2022-11-23T05:48:02;24.70;35.80
74336;DHT22;62755;-33.398;-70.572;2022-11-23T05:50:31;24.70;35.90
74336;DHT22;62755;-33.398;-70.572;2022-11-23T05:53:01;24.60;35.90
74336;DHT22;62755;-33.398;-70.572;2022-11-23T05:55:31;24.50;36.00
74336;DHT22;62755;-33.398;-70.572;2022-11-23T05:58:01;24.50;36.10
74336;DHT22;62755;-33.398;-70.572;2022-11-23T06:00:30;24.50;36.10
74336;DHT22;62755;-33.398;-70.572;2022-11-23T06:03:02;24.50;36.20
74336;DHT22;62755;-33.398;-70.572;2022-11-23T06:05:32;24.50;36.30
74336;DHT22;62755;-33.398;-70.572;2022-11-23T06:08:01;24.40;36.30
74336;DHT22;62755;-33.398;-70.572;2022-11-23T06:10:31;24.40;36.60
74336;DHT22;62755;-33.398;-70.572;2022-11-23T06:13:03;24.40;36.70
74336;DHT22;62755;-33.398;-70.572;2022-11-23T06:15:33;24.40;36.90
74336;DHT22;62755;-33.398;-70.572;2022-11-23T06:18:04;24.40;36.60
74336;DHT22;62755;-33.398;-70.572;2022-11-23T06:20:34;24.40;36.70
74336;DHT22;62755;-33.398;-70.572;2022-11-23T06:23:03;24.40;36.50
74336;DHT22;62755;-33.398;-70.572;2022-11-23T06:25:33;24.40;36.50
74336;DHT22;62755;-33.398;-70.572;2022-11-23T06:28:05;24.40;36.30
74336;DHT22;62755;-33.398;-70.572;2022-11-23T06:30:34;24.20;36.50
74336;DHT22;62755;-33.398;-70.572;2022-11-23T06:33:05;24.00;36.50
74336;DHT22;62755;-33.398;-70.572;2022-11-23T06:35:35;23.90;36.80
74336;DHT22;62755;-33.398;-70.572;2022-11-23T06:38:04;23.70;36.70
74336;DHT22;62755;-33.398;-70.572;2022-11-23T06:40:34;23.60;36.70
74336;DHT22;62755;-33.398;-70.572;2022-11-23T06:43:03;23.70;36.90
74336;DHT22;62755;-33.398;-70.572;2022-11-23T06:45:34;23.80;36.90
74336;DHT22;62755;-33.398;-70.572;2022-11-23T06:48:05;23.80;36.80
74336;DHT22;62755;-33.398;-70.572;2022-11-23T06:50:35;23.90;36.90
74336;DHT22;62755;-33.398;-70.572;2022-11-23T06:53:04;23.90;36.70
74336;DHT22;62755;-33.398;-70.572;2022-11-23T06:55:34;23.90;36.60
74336;DHT22;62755;-33.398;-70.572;2022-11-23T06:58:04;23.90;36.50
74336;DHT22;62755;-33.398;-70.572;2022-11-23T07:00:33;23.90;36.70
74336;DHT22;62755;-33.398;-70.572;2022-11-23T07:03:04;23.90;36.60
74336;DHT22;62755;-33.398;-70.572;2022-11-23T07:05:34;23.90;36.50
74336;DHT22;62755;-33.398;-70.572;2022-11-23T07:08:06;23.80;36.70
74336;DHT22;62755;-33.398;-70.572;2022-11-23T07:10:36;23.80;36.70
74336;DHT22;62755;-33.398;-70.572;2022-11-23T07:13:05;23.80;36.70
74336;DHT22;62755;-33.398;-70.572;2022-11-23T07:15:36;23.80;36.90
74336;DHT22;62755;-33.398;-70.572;2022-11-23T07:18:09;23.90;37.10
74336;DHT22;62755;-33.398;-70.572;2022-11-23T07:20:39;23.80;37.00
74336;DHT22;62755;-33.398;-70.572;2022-11-23T07:23:11;23.70;36.90
74336;DHT22;62755;-33.398;-70.572;2022-11-23T07:25:40;23.70;37.10
74336;DHT22;62755;-33.398;-70.572;2022-11-23T07:28:11;23.70;36.90
74336;DHT22;62755;-33.398;-70.572;2022-11-23T07:30:41;23.60;36.90
74336;DHT22;62755;-33.398;-70.572;2022-11-23T07:33:12;23.60;36.90
74336;DHT22;62755;-33.398;-70.572;2022-11-23T07:35:43;23.60;37.00
74336;DHT22;62755;-33.398;-70.572;2022-11-23T07:38:12;23.60;36.90
74336;DHT22;62755;-33.398;-70.572;2022-11-23T07:40:41;23.60;36.80
74336;DHT22;62755;-33.398;-70.572;2022-11-23T07:43:11;23.60;36.90
74336;DHT22;62755;-33.398;-70.572;2022-11-23T07:45:40;23.60;36.90
74336;DHT22;62755;-33.398;-70.572;2022-11-23T07:48:12;23.60;36.90
74336;DHT22;62755;-33.398;-70.572;2022-11-23T07:50:42;23.60;37.00
74336;DHT22;62755;-33.398;-70.572;2022-11-23T07:53:12;23.60;37.00
74336;DHT22;62755;-33.398;-70.572;2022-11-23T07:55:41;23.60;37.20
74336;DHT22;62755;-33.398;-70.572;2022-11-23T07:58:11;23.60;37.20
74336;DHT22;62755;-33.398;-70.572;2022-11-23T08:00:40;23.80;37.10
74336;DHT22;62755;-33.398;-70.572;2022-11-23T08:03:14;23.90;36.90
74336;DHT22;62755;-33.398;-70.572;2022-11-23T08:05:43;23.90;36.90
74336;DHT22;62755;-33.398;-70.572;2022-11-23T08:08:13;23.90;36.70
74336;DHT22;62755;-33.398;-70.572;2022-11-23T08:10:42;23.90;36.70
74336;DHT22;62755;-33.398;-70.572;2022-11-23T08:13:12;23.90;36.50
74336;DHT22;62755;-33.398;-70.572;2022-11-23T08:15:41;23.90;36.50
74336;DHT22;62755;-33.398;-70.572;2022-11-23T08:18:11;23.90;36.50
74336;DHT22;62755;-33.398;-70.572;2022-11-23T08:20:42;23.90;36.40
74336;DHT22;62755;-33.398;-70.572;2022-11-23T08:23:11;23.80;36.70
74336;DHT22;62755;-33.398;-70.572;2022-11-23T08:25:41;23.80;36.50
74336;DHT22;62755;-33.398;-70.572;2022-11-23T08:28:10;23.80;36.60
74336;DHT22;62755;-33.398;-70.572;2022-11-23T08:30:40;23.80;36.70
74336;DHT22;62755;-33.398;-70.572;2022-11-23T08:33:10;23.60;36.50
74336;DHT22;62755;-33.398;-70.572;2022-11-23T08:35:42;23.60;36.90
74336;DHT22;62755;-33.398;-70.572;2022-11-23T08:38:12;23.60;36.10
74336;DHT22;62755;-33.398;-70.572;2022-11-23T08:40:41;23.20;35.90
74336;DHT22;62755;-33.398;-70.572;2022-11-23T08:43:11;23.10;36.30
74336;DHT22;62755;-33.398;-70.572;2022-11-23T08:45:40;23.00;36.30
74336;DHT22;62755;-33.398;-70.572;2022-11-23T08:48:10;23.00;36.20
74336;DHT22;62755;-33.398;-70.572;2022-11-23T08:50:41;23.10;36.20
74336;DHT22;62755;-33.398;-70.572;2022-11-23T08:53:11;23.20;36.10
74336;DHT22;62755;-33.398;-70.572;2022-11-23T08:55:40;23.20;36.00
74336;DHT22;62755;-33.398;-70.572;2022-11-23T08:58:10;23.20;35.80
74336;DHT22;62755;-33.398;-70.572;2022-11-23T09:00:39;23.10;35.80
74336;DHT22;62755;-33.398;-70.572;2022-11-23T09:03:09;23.10;35.80
74336;DHT22;62755;-33.398;-70.572;2022-11-23T09:05:40;23.00;35.80
74336;DHT22;62755;-33.398;-70.572;2022-11-23T09:08:10;23.00;36.00
74336;DHT22;62755;-33.398;-70.572;2022-11-23T09:10:39;22.90;36.00
74336;DHT22;62755;-33.398;-70.572;2022-11-23T09:13:08;22.90;36.00
74336;DHT22;62755;-33.398;-70.572;2022-11-23T09:15:38;22.90;35.90
74336;DHT22;62755;-33.398;-70.572;2022-11-23T09:18:09;23.00;35.80
74336;DHT22;62755;-33.398;-70.572;2022-11-23T09:20:41;22.90;35.70
74336;DHT22;62755;-33.398;-70.572;2022-11-23T09:23:10;23.00;35.70
74336;DHT22;62755;-33.398;-70.572;2022-11-23T09:25:40;23.00;35.80
74336;DHT22;62755;-33.398;-70.572;2022-11-23T09:28:14;23.00;35.60
74336;DHT22;62755;-33.398;-70.572;2022-11-23T09:30:45;23.00;35.50
74336;DHT22;62755;-33.398;-70.572;2022-11-23T09:33:15;22.90;35.50
74336;DHT22;62755;-33.398;-70.572;2022-11-23T09:35:46;22.90;35.50
74336;DHT22;62755;-33.398;-70.572;2022-11-23T09:38:15;22.80;35.60
74336;DHT22;62755;-33.398;-70.572;2022-11-23T09:40:45;22.80;35.60
74336;DHT22;62755;-33.398;-70.572;2022-11-23T09:43:31;22.90;35.70
74336;DHT22;62755;-33.398;-70.572;2022-11-23T09:46:09;22.90;35.70
74336;DHT22;62755;-33.398;-70.572;2022-11-23T09:48:51;22.90;36.10
74336;DHT22;62755;-33.398;-70.572;2022-11-23T09:51:24;22.80;36.10
74336;DHT22;62755;-33.398;-70.572;2022-11-23T09:53:55;22.80;36.20
74336;DHT22;62755;-33.398;-70.572;2022-11-23T09:56:31;22.80;36.10
74336;DHT22;62755;-33.398;-70.572;2022-11-23T09:59:02;22.90;36.20
74336;DHT22;62755;-33.398;-70.572;2022-11-23T10:01:33;22.90;36.00
74336;DHT22;62755;-33.398;-70.572;2022-11-23T10:04:04;23.00;36.20
74336;DHT22;62755;-33.398;-70.572;2022-11-23T10:06:40;23.00;36.30
74336;DHT22;62755;-33.398;-70.572;2022-11-23T10:09:25;23.00;35.90
74336;DHT22;62755;-33.398;-70.572;2022-11-23T10:12:30;23.00;35.90
74336;DHT22;62755;-33.398;-70.572;2022-11-23T10:15:07;23.10;36.10
74336;DHT22;62755;-33.398;-70.572;2022-11-23T10:18:19;23.10;36.30
74336;DHT22;62755;-33.398;-70.572;2022-11-23T10:20:54;23.20;36.80
74336;DHT22;62755;-33.398;-70.572;2022-11-23T10:23:38;23.20;36.60
74336;DHT22;62755;-33.398;-70.572;2022-11-23T10:26:11;23.20;36.80
74336;DHT22;62755;-33.398;-70.572;2022-11-23T10:28:43;23.20;36.70
74336;DHT22;62755;-33.398;-70.572;2022-11-23T10:31:14;23.30;36.60
74336;DHT22;62755;-33.398;-70.572;2022-11-23T10:33:49;23.40;36.70
74336;DHT22;62755;-33.398;-70.572;2022-11-23T10:36:20;23.40;36.70
74336;DHT22;62755;-33.398;-70.572;2022-11-23T10:38:53;23.40;36.50
74336;DHT22;62755;-33.398;-70.572;2022-11-23T10:41:23;23.50;36.00
74336;DHT22;62755;-33.398;-70.572;2022-11-23T10:43:57;23.40;35.60
74336;DHT22;62755;-33.398;-70.572;2022-11-23T10:46:31;23.20;35.90
74336;DHT22;62755;-33.398;-70.572;2022-11-23T10:49:14;23.10;36.10
74336;DHT22;62755;-33.398;-70.572;2022-11-23T10:51:52;23.20;36.00
74336;DHT22;62755;-33.398;-70.572;2022-11-23T10:54:26;23.20;35.80
74336;DHT22;62755;-33.398;-70.572;2022-11-23T10:56:57;23.30;36.10
74336;DHT22;62755;-33.398;-70.572;2022-11-23T10:59:32;23.40;36.00
74336;DHT22;62755;-33.398;-70.572;2022-11-23T11:02:14;23.50;36.00
74336;DHT22;62755;-33.398;-70.572;2022-11-23T11:04:45;23.60;36.00
74336;DHT22;62755;-33.398;-70.572;2022-11-23T11:07:32;23.60;35.20
74336;DHT22;62755;-33.398;-70.572;2022-11-23T11:10:30;23.60;35.70
74336;DHT22;62755;-33.398;-70.572;2022-11-23T11:13:00;23.70;35.80
74336;DHT22;62755;-33.398;-70.572;2022-11-23T11:15:29;23.60;36.30
74336;DHT22;62755;-33.398;-70.572;2022-11-23T11:17:59;23.60;36.20
74336;DHT22;62755;-33.398;-70.572;2022-11-23T11:20:30;23.70;36.30
74336;DHT22;62755;-33.398;-70.572;2022-11-23T11:23:02;23.80;36.30
74336;DHT22;62755;-33.398;-70.572;2022-11-23T11:25:35;23.70;36.50
74336;DHT22;62755;-33.398;-70.572;2022-11-23T11:28:19;23.70;36.80
74336;DHT22;62755;-33.398;-70.572;2022-11-23T11:30:56;23.80;37.70
74336;DHT22;62755;-33.398;-70.572;2022-11-23T11:33:32;23.80;36.70
74336;DHT22;62755;-33.398;-70.572;2022-11-23T11:36:04;23.90;37.00
74336;DHT22;62755;-33.398;-70.572;2022-11-23T11:38:36;23.90;37.10
74336;DHT22;62755;-33.398;-70.572;2022-11-23T11:41:09;24.00;36.70
74336;DHT22;62755;-33.398;-70.572;2022-11-23T11:43:42;24.00;36.80
74336;DHT22;62755;-33.398;-70.572;2022-11-23T11:46:15;24.10;36.90
74336;DHT22;62755;-33.398;-70.572;2022-11-23T11:48:50;24.20;36.70
74336;DHT22;62755;-33.398;-70.572;2022-11-23T11:51:25;24.10;36.70
74336;DHT22;62755;-33.398;-70.572;2022-11-23T11:53:58;24.20;36.50
74336;DHT22;62755;-33.398;-70.572;2022-11-23T11:56:36;24.20;36.50
74336;DHT22;62755;-33.398;-70.572;2022-11-23T11:59:15;24.20;36.40
74336;DHT22;62755;-33.398;-70.572;2022-11-23T12:01:55;24.10;36.60
74336;DHT22;62755;-33.398;-70.572;2022-11-23T12:04:34;24.10;36.50
74336;DHT22;62755;-33.398;-70.572;2022-11-23T12:07:07;24.00;36.50
74336;DHT22;62755;-33.398;-70.572;2022-11-23T12:09:43;24.00;36.50
74336;DHT22;62755;-33.398;-70.572;2022-11-23T12:12:17;24.00;36.70
74336;DHT22;62755;-33.398;-70.572;2022-11-23T12:14:47;24.00;36.90
74336;DHT22;62755;-33.398;-70.572;2022-11-23T12:20:23;24.10;36.80
74336;DHT22;62755;-33.398;-70.572;2022-11-23T12:23:09;24.20;36.70
74336;DHT22;62755;-33.398;-70.572;2022-11-23T12:25:47;24.20;37.00
74336;DHT22;62755;-33.398;-70.572;2022-11-23T12:28:38;24.20;37.00
74336;DHT22;62755;-33.398;-70.572;2022-11-23T12:31:19;24.20;37.20
74336;DHT22;62755;-33.398;-70.572;2022-11-23T12:34:11;24.20;37.10
74336;DHT22;62755;-33.398;-70.572;2022-11-23T12:37:02;24.40;37.10
74336;DHT22;62755;-33.398;-70.572;2022-11-23T12:42:41;24.40;37.10
74336;DHT22;62755;-33.398;-70.572;2022-11-23T12:45:27;24.40;37.20
74336;DHT22;62755;-33.398;-70.572;2022-11-23T12:48:11;24.40;37.40
74336;DHT22;62755;-33.398;-70.572;2022-11-23T12:50:51;24.40;37.10
74336;DHT22;62755;-33.398;-70.572;2022-11-23T12:53:33;24.40;37.10
74336;DHT22;62755;-33.398;-70.572;2022-11-23T12:56:12;24.40;37.00
74336;DHT22;62755;-33.398;-70.572;2022-11-23T12:58:44;24.50;36.90
74336;DHT22;62755;-33.398;-70.572;2022-11-23T13:01:19;24.50;36.80
74336;DHT22;62755;-33.398;-70.572;2022-11-23T13:10:07;24.60;37.10
74336;DHT22;62755;-33.398;-70.572;2022-11-23T13:13:04;24.70;36.90
74336;DHT22;62755;-33.398;-70.572;2022-11-23T13:15:52;24.70;36.90
74336;DHT22;62755;-33.398;-70.572;2022-11-23T13:18:40;24.70;36.80
74336;DHT22;62755;-33.398;-70.572;2022-11-23T13:21:21;24.70;36.70
74336;DHT22;62755;-33.398;-70.572;2022-11-23T13:23:54;24.80;36.90
74336;DHT22;62755;-33.398;-70.572;2022-11-23T13:26:24;24.80;36.70
74336;DHT22;62755;-33.398;-70.572;2022-11-23T13:28:55;24.80;36.70
74336;DHT22;62755;-33.398;-70.572;2022-11-23T13:31:26;24.90;36.50
74336;DHT22;62755;-33.398;-70.572;2022-11-23T13:33:59;25.00;36.50
74336;DHT22;62755;-33.398;-70.572;2022-11-23T13:36:40;25.00;36.30
74336;DHT22;62755;-33.398;-70.572;2022-11-23T13:42:25;25.20;35.80
74336;DHT22;62755;-33.398;-70.572;2022-11-23T13:45:24;25.20;36.30
74336;DHT22;62755;-33.398;-70.572;2022-11-23T13:48:16;25.20;36.50
74336;DHT22;62755;-33.398;-70.572;2022-11-23T13:51:01;25.20;36.70
74336;DHT22;62755;-33.398;-70.572;2022-11-23T13:53:33;25.20;36.70
74336;DHT22;62755;-33.398;-70.572;2022-11-23T13:56:21;25.20;36.70
74336;DHT22;62755;-33.398;-70.572;2022-11-23T13:58:54;25.30;36.20
74336;DHT22;62755;-33.398;-70.572;2022-11-23T14:04:44;25.40;35.40
74336;DHT22;62755;-33.398;-70.572;2022-11-23T14:07:20;25.40;35.40
74336;DHT22;62755;-33.398;-70.572;2022-11-23T14:09:53;25.50;34.80
74336;DHT22;62755;-33.398;-70.572;2022-11-23T14:12:30;25.50;34.90
74336;DHT22;62755;-33.398;-70.572;2022-11-23T14:15:06;25.50;34.60
74336;DHT22;62755;-33.398;-70.572;2022-11-23T14:18:06;25.60;34.70
74336;DHT22;62755;-33.398;-70.572;2022-11-23T14:20:54;25.60;34.70
74336;DHT22;62755;-33.398;-70.572;2022-11-23T14:26:36;25.80;34.10
74336;DHT22;62755;-33.398;-70.572;2022-11-23T14:29:27;25.70;34.30
74336;DHT22;62755;-33.398;-70.572;2022-11-23T14:32:15;25.80;33.90
74336;DHT22;62755;-33.398;-70.572;2022-11-23T14:34:57;25.80;34.30
74336;DHT22;62755;-33.398;-70.572;2022-11-23T14:37:38;25.80;34.30
74336;DHT22;62755;-33.398;-70.572;2022-11-23T14:40:19;25.80;34.40
74336;DHT22;62755;-33.398;-70.572;2022-11-23T14:42:54;26.00;34.20
74336;DHT22;62755;-33.398;-70.572;2022-11-23T14:45:27;26.00;34.30
74336;DHT22;62755;-33.398;-70.572;2022-11-23T14:50:41;26.10;34.20
74336;DHT22;62755;-33.398;-70.572;2022-11-23T14:53:11;26.20;34.00
74336;DHT22;62755;-33.398;-70.572;2022-11-23T14:55:47;26.20;33.90
74336;DHT22;62755;-33.398;-70.572;2022-11-23T14:58:17;26.30;33.70
74336;DHT22;62755;-33.398;-70.572;2022-11-23T15:00:49;26.40;33.50
74336;DHT22;62755;-33.398;-70.572;2022-11-23T15:03:20;26.40;33.40
74336;DHT22;62755;-33.398;-70.572;2022-11-23T15:05:56;26.40;33.40
74336;DHT22;62755;-33.398;-70.572;2022-11-23T15:08:29;26.40;33.30
74336;DHT22;62755;-33.398;-70.572;2022-11-23T15:11:06;26.50;33.30
74336;DHT22;62755;-33.398;-70.572;2022-11-23T15:13:44;26.50;33.20
74336;DHT22;62755;-33.398;-70.572;2022-11-23T15:16:15;26.50;33.00
74336;DHT22;62755;-33.398;-70.572;2022-11-23T15:18:45;26.50;33.20
74336;DHT22;62755;-33.398;-70.572;2022-11-23T15:21:18;26.60;33.30
74336;DHT22;62755;-33.398;-70.572;2022-11-23T15:23:50;26.70;33.20
74336;DHT22;62755;-33.398;-70.572;2022-11-23T15:26:23;26.70;33.20
74336;DHT22;62755;-33.398;-70.572;2022-11-23T15:28:55;26.80;33.20
74336;DHT22;62755;-33.398;-70.572;2022-11-23T15:31:27;26.80;33.30
74336;DHT22;62755;-33.398;-70.572;2022-11-23T15:33:59;26.80;33.30
74336;DHT22;62755;-33.398;-70.572;2022-11-23T15:36:31;26.90;33.20
74336;DHT22;62755;-33.398;-70.572;2022-11-23T15:39:02;26.90;33.30
74336;DHT22;62755;-33.398;-70.572;2022-11-23T15:41:37;26.90;33.20
74336;DHT22;62755;-33.398;-70.572;2022-11-23T15:44:16;27.00;33.40
74336;DHT22;62755;-33.398;-70.572;2022-11-23T15:46:47;27.00;33.20